createdAt,value
2023-01-17T00:00:19.615Z,95388.13
2023-01-17T00:03:11.084Z,95393.28
2023-01-17T00:06:16.405Z,95401.59
2023-01-17T00:09:21.654Z,95402.94
2023-01-17T00:12:09.575Z,95400.78
2023-01-17T00:15:00.465Z,95399.69
2023-01-17T00:17:49.107Z,95401.31
2023-01-17T00:20:55.509Z,95392.44
2023-01-17T00:23:56.848Z,95392.44
2023-01-17T00:26:58.616Z,95391.66
2023-01-17T00:29:45.203Z,95398.06
2023-01-17T00:32:31.655Z,95400.06
2023-01-17T00:35:19.889Z,95407.09
2023-01-17T00:38:09.920Z,95409.72
2023-01-17T00:41:02.735Z,95417.16
2023-01-17T00:44:07.943Z,95418.78
2023-01-17T00:47:15.876Z,95421.59
2023-01-17T00:50:21.028Z,95430.47
2023-01-17T00:53:27.211Z,95434.25
2023-01-17T00:56:32.176Z,95438.88
2023-01-17T00:59:37.369Z,95438.59
2023-01-17T01:02:43.439Z,95436.63
2023-01-17T01:05:48.666Z,95439.41
2023-01-17T01:08:54.836Z,95435.53
2023-01-17T01:11:59.802Z,95454.69
2023-01-17T01:15:05.041Z,95449.44
2023-01-17T01:18:10.173Z,95454.25
2023-01-17T01:21:15.214Z,95457.41
2023-01-17T01:24:21.954Z,95466.25
2023-01-17T01:27:27.102Z,95456.09
2023-01-17T01:30:32.301Z,95460.09
2023-01-17T01:33:18.767Z,95454.22
2023-01-17T01:36:10.038Z,95460.78
2023-01-17T01:38:57.918Z,95456.72
2023-01-17T01:41:46.705Z,95462.31
2023-01-17T01:44:46.278Z,95470.84
2023-01-17T01:47:40.691Z,95469.38
2023-01-17T01:50:30.529Z,95469.53
2023-01-17T01:53:22.154Z,95478.59
2023-01-17T01:56:13.982Z,95478.59
2023-01-17T01:59:08.238Z,95482.47
2023-01-17T02:01:58.244Z,95481.84
2023-01-17T02:04:46.994Z,95482.81
2023-01-17T02:07:42.772Z,95485.28
2023-01-17T02:10:34.092Z,95488.72
2023-01-17T02:13:22.315Z,95488.06
2023-01-17T02:16:28.369Z,95494.63
2023-01-17T02:20:19.677Z,95500.56
2023-01-17T02:23:57.615Z,95481.38
2023-01-17T02:27:05.506Z,95486.09
2023-01-17T02:30:34.482Z,95491.34
2023-01-17T02:33:33.840Z,95493.69
2023-01-17T02:36:30.283Z,95488.81
2023-01-17T02:39:24.633Z,95490.06
2023-01-17T02:42:18.936Z,95487.44
2023-01-17T02:45:08.792Z,95496.50
2023-01-17T02:47:58.115Z,95485.84
2023-01-17T02:51:09.531Z,95497.63
2023-01-17T02:54:33.014Z,95497.81
2023-01-17T02:57:44.970Z,95491.59
2023-01-17T03:00:45.283Z,95497.19
2023-01-17T03:03:47.629Z,95493.44
2023-01-17T03:06:42.492Z,95507.19
2023-01-17T03:09:32.616Z,95511.16
2023-01-17T03:12:21.824Z,95512.34
2023-01-17T03:15:12.964Z,95521.34
2023-01-17T03:18:06.798Z,95519.72
2023-01-17T03:20:55.768Z,95531.03
2023-01-17T03:23:43.241Z,95544.94
2023-01-17T03:26:31.747Z,95543.97
2023-01-17T03:29:19.451Z,95543.16
2023-01-17T03:32:07.577Z,95551.19
2023-01-17T03:34:55.648Z,95551.53
2023-01-17T03:37:44.685Z,95554.50
2023-01-17T03:40:32.380Z,95564.97
2023-01-17T03:43:20.099Z,95571.22
2023-01-17T03:46:18.895Z,95566.13
2023-01-17T03:49:06.288Z,95557.44
2023-01-17T03:51:54.053Z,95567.28
2023-01-17T03:54:42.754Z,95567.28
2023-01-17T03:57:30.470Z,95568.09
2023-01-17T04:00:19.139Z,95565.66
2023-01-17T04:03:06.971Z,95556.34
2023-01-17T04:05:54.549Z,95573.69
2023-01-17T04:08:41.845Z,95564.38
2023-01-17T04:11:30.918Z,95567.34
2023-01-17T04:14:18.921Z,95569.13
2023-01-17T04:17:06.969Z,95562.09
2023-01-17T04:19:55.167Z,95569.13
2023-01-17T04:22:42.496Z,95568.69
2023-01-17T04:25:31.081Z,95575.88
2023-01-17T04:28:20.047Z,95567.69
2023-01-17T04:31:08.228Z,95569.34
2023-01-17T04:33:55.886Z,95581.03
2023-01-17T04:36:43.262Z,95577.13
2023-01-17T04:39:30.801Z,95587.59
2023-01-17T04:42:18.158Z,95583.88
2023-01-17T04:45:08.751Z,95599.22
2023-01-17T04:47:56.148Z,95605.78
2023-01-17T04:50:43.632Z,95607.94
2023-01-17T04:53:31.172Z,95611.84
2023-01-17T04:56:19.665Z,95620.22
2023-01-17T04:59:07.286Z,95628.59
2023-01-17T05:01:56.100Z,95633.34
2023-01-17T05:04:43.576Z,95632.50
2023-01-17T05:07:30.951Z,95635.28
2023-01-17T05:10:18.871Z,95641.84
2023-01-17T05:13:06.760Z,95643.50
2023-01-17T05:15:54.334Z,95641.84
2023-01-17T05:18:43.062Z,95652.50
2023-01-17T05:21:31.561Z,95654.13
2023-01-17T05:24:19.829Z,95644.81
2023-01-17T05:27:07.807Z,95651.38
2023-01-17T05:29:55.222Z,95647.09
2023-01-17T05:32:45.559Z,95657.56
2023-01-17T05:35:35.038Z,95658.56
2023-01-17T05:38:23.599Z,95659.56
2023-01-17T05:41:11.646Z,95655.47
2023-01-17T05:43:59.452Z,95650.09
2023-01-17T05:46:46.968Z,95653.66
2023-01-17T05:49:34.369Z,95662.00
2023-01-17T05:52:23.187Z,95662.81
2023-01-17T05:55:11.279Z,95669.03
2023-01-17T05:57:59.715Z,95677.72
2023-01-17T06:00:47.429Z,95687.34
2023-01-17T06:03:35.225Z,95700.09
2023-01-17T06:06:23.330Z,95692.25
2023-01-17T06:09:12.694Z,95695.88
2023-01-17T06:12:00.411Z,95689.34
2023-01-17T06:14:47.819Z,95686.53
2023-01-17T06:17:35.881Z,95684.91
2023-01-17T06:20:23.395Z,95678.19
2023-01-17T06:23:14.689Z,95685.22
2023-01-17T06:26:08.396Z,95671.19
2023-01-17T06:28:55.771Z,95671.03
2023-01-17T06:31:43.297Z,95668.41
2023-01-17T06:34:30.678Z,95675.44
2023-01-17T06:37:18.571Z,95676.75
2023-01-17T06:40:08.740Z,95670.19
2023-01-17T06:43:02.150Z,95670.19
2023-01-17T06:45:51.300Z,95675.25
2023-01-17T06:48:39.157Z,95674.28
2023-01-17T06:51:27.796Z,95676.41
2023-01-17T06:54:15.598Z,95688.16
2023-01-17T06:57:03.334Z,95683.41
2023-01-17T06:59:52.105Z,95694.69
2023-01-17T07:02:39.652Z,95696.50
2023-01-17T07:05:28.484Z,95694.69
2023-01-17T07:08:17.088Z,95697.81
2023-01-17T07:11:08.965Z,95704.03
2023-01-17T07:13:56.657Z,95709.56
2023-01-17T07:16:46.183Z,95708.75
2023-01-17T07:19:33.854Z,95708.41
2023-01-17T07:22:21.446Z,95709.34
2023-01-17T07:25:10.029Z,95707.56
2023-01-17T07:27:57.780Z,95700.00
2023-01-17T07:30:45.785Z,95699.38
2023-01-17T07:33:34.976Z,95701.78
2023-01-17T07:36:22.599Z,95707.84
2023-01-17T07:39:11.509Z,95708.00
2023-01-17T07:42:01.733Z,95708.47
2023-01-17T07:44:52.197Z,95708.13
2023-01-17T07:47:39.791Z,95698.97
2023-01-17T07:50:29.166Z,95700.13
2023-01-17T07:53:18.402Z,95697.16
2023-01-17T07:56:08.663Z,95690.44
2023-01-17T07:58:56.093Z,95695.00
2023-01-17T08:01:43.863Z,95688.00
2023-01-17T08:04:35.131Z,95702.19
2023-01-17T08:07:25.708Z,95704.13
2023-01-17T08:10:17.821Z,95705.28
2023-01-17T08:13:05.424Z,95700.63
2023-01-17T08:15:54.565Z,95709.94
2023-01-17T08:18:42.168Z,95707.22
2023-01-17T08:21:29.848Z,95700.38
2023-01-17T08:24:19.231Z,95709.19
2023-01-17T08:27:08.799Z,95704.97
2023-01-17T08:29:56.696Z,95703.00
2023-01-17T08:32:44.090Z,95704.31
2023-01-17T08:35:31.954Z,95702.22
2023-01-17T08:38:19.246Z,95692.75
2023-01-17T08:41:08.468Z,95698.13
2023-01-17T08:43:55.845Z,95687.66
2023-01-17T08:46:44.204Z,95690.28
2023-01-17T08:49:31.703Z,95684.22
2023-01-17T08:52:19.130Z,95683.41
2023-01-17T08:55:10.008Z,95695.00
2023-01-17T08:57:59.339Z,95689.78
2023-01-17T09:00:46.884Z,95697.78
2023-01-17T09:03:38.400Z,95695.31
2023-01-17T09:06:27.498Z,95703.34
2023-01-17T09:09:16.331Z,95693.69
2023-01-17T09:12:04.094Z,95701.72
2023-01-17T09:14:52.947Z,95700.75
2023-01-17T09:17:40.345Z,95686.53
2023-01-17T09:20:30.187Z,95688.16
2023-01-17T09:23:18.319Z,95690.63
2023-01-17T09:26:06.421Z,95685.38
2023-01-17T09:28:54.467Z,95693.38
2023-01-17T09:31:43.540Z,95695.84
2023-01-17T09:34:31.582Z,95692.88
2023-01-17T09:37:19.046Z,95687.97
2023-01-17T09:40:08.604Z,95678.13
2023-01-17T09:43:04.117Z,95674.84
2023-01-17T09:45:52.119Z,95682.00
2023-01-17T09:48:44.030Z,95678.28
2023-01-17T09:51:32.834Z,95675.81
2023-01-17T09:54:25.628Z,95672.84
2023-01-17T09:57:39.693Z,95685.25
2023-01-17T10:00:56.323Z,95678.66
2023-01-17T10:04:07.820Z,95667.78
2023-01-17T10:07:15.636Z,95662.97
2023-01-17T10:10:20.488Z,95652.88
2023-01-17T10:13:31.609Z,95649.03
2023-01-17T10:16:38.803Z,95646.94
2023-01-17T10:19:57.448Z,95636.56
2023-01-17T10:23:08.280Z,95629.25
2023-01-17T10:26:01.800Z,95630.75
2023-01-17T10:28:52.840Z,95627.78
2023-01-17T10:31:46.218Z,95625.25
2023-01-17T10:34:47.290Z,95622.53
2023-01-17T10:37:41.531Z,95622.13
2023-01-17T10:40:41.941Z,95637.03
2023-01-17T10:43:44.474Z,95623.44
2023-01-17T10:46:40.565Z,95630.03
2023-01-17T10:49:29.571Z,95618.84
2023-01-17T10:52:40.588Z,95618.38
2023-01-17T10:55:44.523Z,95618.13
2023-01-17T10:58:33.072Z,95622.22
2023-01-17T11:01:22.541Z,95618.38
2023-01-17T11:04:21.160Z,95616.91
2023-01-17T11:07:15.164Z,95611.88
2023-01-17T11:10:04.076Z,95609.38
2023-01-17T11:12:51.655Z,95605.84
2023-01-17T11:15:41.944Z,95599.31
2023-01-17T11:18:32.591Z,95589.66
2023-01-17T11:21:25.319Z,95582.22
2023-01-17T11:24:27.020Z,95589.38
2023-01-17T11:27:27.718Z,95580.22
2023-01-17T11:30:18.653Z,95557.69
2023-01-17T11:33:33.504Z,95549.78
2023-01-17T11:36:27.269Z,95548.56
2023-01-17T11:39:29.626Z,95549.41
2023-01-17T11:42:40.094Z,95545.31
2023-01-17T11:45:31.261Z,95523.31
2023-01-17T11:48:19.577Z,95538.00
2023-01-17T11:51:28.239Z,95535.13
2023-01-17T11:54:23.499Z,95525.06
2023-01-17T11:57:25.928Z,95524.34
2023-01-17T12:00:23.524Z,95502.41
2023-01-17T12:03:25.886Z,95514.44
2023-01-17T12:06:26.004Z,95520.53
2023-01-17T12:09:28.688Z,95497.94
2023-01-17T12:12:53.221Z,95513.00
2023-01-17T12:16:01.752Z,95515.44
2023-01-17T12:19:02.042Z,95505.91
2023-01-17T12:22:04.548Z,95498.09
2023-01-17T12:25:14.945Z,95499.44
2023-01-17T12:28:26.183Z,95514.03
2023-01-17T12:31:28.526Z,95513.03
2023-01-17T12:34:28.858Z,95503.28
2023-01-17T12:37:24.535Z,95497.97
2023-01-17T12:40:23.985Z,95491.50
2023-01-17T12:43:22.672Z,95499.19
2023-01-17T12:46:21.179Z,95497.97
2023-01-17T12:49:25.093Z,95497.31
2023-01-17T12:52:22.568Z,95487.56
2023-01-17T12:55:18.324Z,95481.59
2023-01-17T12:58:13.761Z,95489.25
2023-01-17T13:01:09.753Z,95490.22
2023-01-17T13:04:28.048Z,95476.13
2023-01-17T13:07:29.234Z,95483.28
2023-01-17T13:10:32.057Z,95482.66
2023-01-17T13:13:24.134Z,95489.59
2023-01-17T13:16:18.929Z,95463.03
2023-01-17T13:19:22.089Z,95469.94
2023-01-17T13:22:17.688Z,95477.22
2023-01-17T13:25:30.819Z,95472.13
2023-01-17T13:28:37.168Z,95468.31
2023-01-17T13:31:48.316Z,95463.41
2023-01-17T13:35:13.220Z,95461.41
2023-01-17T13:38:54.950Z,95458.38
2023-01-17T13:41:54.009Z,95439.50
2023-01-17T13:44:41.982Z,95435.63
2023-01-17T13:47:42.506Z,95421.34
2023-01-17T13:50:54.051Z,95423.97
2023-01-17T13:53:50.846Z,95421.19
2023-01-17T13:56:38.375Z,95427.22
2023-01-17T13:59:30.574Z,95413.38
2023-01-17T14:02:39.365Z,95405.19
2023-01-17T14:05:49.231Z,95425.81
2023-01-17T14:08:45.869Z,95405.81
2023-01-17T14:11:36.541Z,95416.59
2023-01-17T14:14:50.471Z,95418.25
2023-01-17T14:17:57.072Z,95419.50
2023-01-17T14:21:11.242Z,95406.13
2023-01-17T14:24:07.369Z,95406.13
2023-01-17T14:27:00.120Z,95401.03
2023-01-17T14:29:58.929Z,95399.38
2023-01-17T14:33:15.957Z,95398.75
2023-01-17T14:36:08.254Z,95395.81
2023-01-17T14:38:55.755Z,95380.38
2023-01-17T14:41:45.185Z,95381.19
2023-01-17T14:44:34.124Z,95377.31
2023-01-17T14:47:22.483Z,95374.03
2023-01-17T14:50:23.916Z,95366.03
2023-01-17T14:53:26.002Z,95364.75
2023-01-17T14:56:17.146Z,95359.41
2023-01-17T14:59:17.195Z,95363.81
2023-01-17T15:02:09.863Z,95371.84
2023-01-17T15:04:57.437Z,95377.88
2023-01-17T15:07:48.448Z,95374.59
2023-01-17T15:10:36.440Z,95373.28
2023-01-17T15:13:43.357Z,95381.34
2023-01-17T15:16:36.309Z,95375.59
2023-01-17T15:19:24.223Z,95375.53
2023-01-17T15:22:13.103Z,95364.72
2023-01-17T15:25:01.315Z,95370.97
2023-01-17T15:27:49.003Z,95373.31
2023-01-17T15:30:36.774Z,95372.44
2023-01-17T15:33:28.083Z,95373.56
2023-01-17T15:36:30.163Z,95375.09
2023-01-17T15:39:24.095Z,95380.47
2023-01-17T15:42:25.362Z,95371.09
2023-01-17T15:45:19.893Z,95376.47
2023-01-17T15:48:38.481Z,95375.91
2023-01-17T15:51:37.002Z,95383.91
2023-01-17T15:54:47.930Z,95377.31
2023-01-17T15:57:37.617Z,95384.50
2023-01-17T16:00:32.471Z,95384.38
2023-01-17T16:03:26.568Z,95374.19
2023-01-17T16:06:38.242Z,95373.28
2023-01-17T16:09:26.244Z,95374.00
2023-01-17T16:12:13.721Z,95373.13
2023-01-17T16:15:12.454Z,95377.78
2023-01-17T16:18:07.463Z,95378.88
2023-01-17T16:21:01.141Z,95374.97
2023-01-17T16:23:50.719Z,95374.72
2023-01-17T16:26:38.283Z,95371.97
2023-01-17T16:29:25.788Z,95381.75
2023-01-17T16:32:15.393Z,95382.09
2023-01-17T16:35:03.210Z,95383.44
2023-01-17T16:37:51.768Z,95387.59
2023-01-17T16:40:44.960Z,95392.38
2023-01-17T16:43:32.550Z,95393.91
2023-01-17T16:46:22.216Z,95398.03
2023-01-17T16:49:09.660Z,95398.38
2023-01-17T16:51:56.969Z,95390.88
2023-01-17T16:54:44.537Z,95401.06
2023-01-17T16:57:33.757Z,95404.19
2023-01-17T17:00:22.573Z,95413.56
2023-01-17T17:03:17.875Z,95409.84
2023-01-17T17:06:05.689Z,95412.00
2023-01-17T17:08:53.136Z,95412.84
2023-01-17T17:11:43.194Z,95414.03
2023-01-17T17:14:32.328Z,95401.09
2023-01-17T17:17:19.836Z,95411.09
2023-01-17T17:20:11.445Z,95395.59
2023-01-17T17:22:58.791Z,95398.72
2023-01-17T17:25:46.199Z,95403.31
2023-01-17T17:28:33.942Z,95405.28
2023-01-17T17:31:26.529Z,95405.63
2023-01-17T17:34:16.188Z,95397.75
2023-01-17T17:37:04.061Z,95397.47
2023-01-17T17:39:51.433Z,95399.78
2023-01-17T17:42:39.001Z,95404.41
2023-01-17T17:45:26.566Z,95404.75
2023-01-17T17:48:15.485Z,95399.69
2023-01-17T17:51:04.548Z,95409.50
2023-01-17T17:53:52.665Z,95406.38
2023-01-17T17:56:41.109Z,95412.31
2023-01-17T17:59:29.811Z,95418.25
2023-01-17T18:02:17.477Z,95414.31
2023-01-17T18:05:08.035Z,95419.72
2023-01-17T18:07:56.009Z,95420.06
2023-01-17T18:10:44.686Z,95425.16
2023-01-17T18:13:33.605Z,95426.66
2023-01-17T18:16:24.593Z,95418.31
2023-01-17T18:19:15.650Z,95416.03
2023-01-17T18:22:04.345Z,95425.22
2023-01-17T18:24:51.853Z,95419.81
2023-01-17T18:27:39.686Z,95428.81
2023-01-17T18:30:27.245Z,95434.22
2023-01-17T18:33:14.541Z,95427.69
2023-01-17T18:36:04.631Z,95427.88
2023-01-17T18:38:53.832Z,95428.53
2023-01-17T18:41:41.947Z,95427.25
2023-01-17T18:44:30.260Z,95433.78
2023-01-17T18:47:17.744Z,95431.16
2023-01-17T18:50:09.331Z,95424.66
2023-01-17T18:52:57.062Z,95423.31
2023-01-17T18:55:57.059Z,95411.13
2023-01-17T18:59:17.470Z,95418.78
2023-01-17T19:02:05.834Z,95421.91
2023-01-17T19:05:01.765Z,95419.44
2023-01-17T19:07:51.009Z,95421.56
2023-01-17T19:10:38.814Z,95426.31
2023-01-17T19:13:28.428Z,95426.31
2023-01-17T19:16:23.796Z,95423.53
2023-01-17T19:19:17.584Z,95430.22
2023-01-17T19:22:06.243Z,95433.16
2023-01-17T19:25:10.624Z,95438.69
2023-01-17T19:28:01.375Z,95441.47
2023-01-17T19:31:05.178Z,95441.63
2023-01-17T19:33:58.326Z,95453.06
2023-01-17T19:36:48.878Z,95457.81
2023-01-17T19:39:43.475Z,95452.59
2023-01-17T19:42:37.085Z,95457.16
2023-01-17T19:45:25.828Z,95463.03
2023-01-17T19:48:15.318Z,95459.59
2023-01-17T19:51:08.921Z,95463.84
2023-01-17T19:54:02.410Z,95463.84
2023-01-17T19:56:51.034Z,95462.22
2023-01-17T19:59:38.687Z,95460.59
2023-01-17T20:02:26.778Z,95462.22
2023-01-17T20:05:18.136Z,95454.53
2023-01-17T20:08:06.312Z,95453.38
2023-01-17T20:10:55.541Z,95455.00
2023-01-17T20:13:49.819Z,95450.78
2023-01-17T20:16:37.982Z,95455.50
2023-01-17T20:19:29.946Z,95458.78
2023-01-17T20:22:20.873Z,95468.09
2023-01-17T20:25:14.104Z,95456.03
2023-01-17T20:28:01.779Z,95465.66
2023-01-17T20:30:49.658Z,95463.50
2023-01-17T20:33:40.441Z,95463.50
2023-01-17T20:36:29.921Z,95461.56
2023-01-17T20:39:19.670Z,95462.38
2023-01-17T20:42:07.422Z,95463.34
2023-01-17T20:44:55.015Z,95460.75
2023-01-17T20:47:42.525Z,95465.97
2023-01-17T20:50:30.125Z,95478.88
2023-01-17T20:53:19.328Z,95481.47
2023-01-17T20:56:09.827Z,95464.97
2023-01-17T20:58:57.946Z,95471.53
2023-01-17T21:01:49.220Z,95473.31
2023-01-17T21:04:37.355Z,95478.22
2023-01-17T21:07:25.319Z,95470.06
2023-01-17T21:10:13.096Z,95471.03
2023-01-17T21:13:03.169Z,95461.38
2023-01-17T21:15:52.092Z,95467.44
2023-01-17T21:18:39.697Z,95467.44
2023-01-17T21:21:32.075Z,95467.44
2023-01-17T21:24:20.121Z,95462.22
2023-01-17T21:27:09.065Z,95461.22
2023-01-17T21:30:00.172Z,95457.00
2023-01-17T21:32:47.698Z,95456.66
2023-01-17T21:35:35.492Z,95459.44
2023-01-17T21:38:23.040Z,95455.03
2023-01-17T21:41:13.529Z,95457.50
2023-01-17T21:44:03.860Z,95455.50
2023-01-17T21:46:56.098Z,95451.56
2023-01-17T21:49:45.641Z,95454.19
2023-01-17T21:52:33.612Z,95460.09
2023-01-17T21:55:38.749Z,95451.56
2023-01-17T21:58:44.634Z,95452.06
2023-01-17T22:01:34.469Z,95456.16
2023-01-17T22:04:24.536Z,95458.59
2023-01-17T22:07:12.298Z,95449.81
2023-01-17T22:09:59.899Z,95452.25
2023-01-17T22:12:48.645Z,95451.25
2023-01-17T22:15:36.511Z,95449.47
2023-01-17T22:18:24.522Z,95459.91
2023-01-17T22:21:16.700Z,95456.31
2023-01-17T22:24:06.631Z,95451.88
2023-01-17T22:26:59.572Z,95456.63
2023-01-17T22:29:47.151Z,95447.16
2023-01-17T22:32:35.145Z,95448.78
2023-01-17T22:35:23.036Z,95453.84
2023-01-17T22:38:12.311Z,95446.00
2023-01-17T22:41:08.035Z,95444.38
2023-01-17T22:43:58.733Z,95450.59
2023-01-17T22:46:46.351Z,95447.81
2023-01-17T22:49:33.983Z,95441.59
2023-01-17T22:52:21.333Z,95444.22
2023-01-17T22:55:12.142Z,95442.25
2023-01-17T22:57:59.684Z,95443.22
2023-01-17T23:00:47.525Z,95441.59
2023-01-17T23:03:36.197Z,95441.59
2023-01-17T23:06:28.575Z,95439.16
2023-01-17T23:09:17.867Z,95439.97
2023-01-17T23:12:07.840Z,95435.38
2023-01-17T23:15:13.234Z,95440.59
2023-01-17T23:18:18.967Z,95434.41
2023-01-17T23:21:08.987Z,95437.03
2023-01-17T23:23:56.528Z,95429.97
2023-01-17T23:27:03.928Z,95434.41
2023-01-17T23:29:51.887Z,95438.50
2023-01-17T23:32:40.154Z,95440.13
2023-01-17T23:35:31.606Z,95432.44
2023-01-17T23:38:29.345Z,95428.84
2023-01-17T23:41:34.348Z,95434.88
2023-01-17T23:44:27.127Z,95436.69
2023-01-17T23:47:15.862Z,95428.03
2023-01-17T23:50:03.325Z,95434.88
2023-01-17T23:52:50.837Z,95426.88
2023-01-17T23:55:40.824Z,95431.31
2023-01-17T23:58:29.556Z,95427.69
